createdAt,value
2018-07-26T00:01:54.186Z,101446.59
2018-07-26T00:04:22.676Z,101447.92
2018-07-26T00:06:51.421Z,101448.39
2018-07-26T00:09:20.374Z,101448.41
2018-07-26T00:11:49.027Z,101450.22
2018-07-26T00:14:17.872Z,101445.79
2018-07-26T00:16:46.920Z,101445.39
2018-07-26T00:19:16.288Z,101450.75
2018-07-26T00:21:44.955Z,101453.39
2018-07-26T00:24:13.588Z,101457.84
2018-07-26T00:26:42.313Z,101456.05
2018-07-26T00:29:11.230Z,101456.95
2018-07-26T00:31:39.658Z,101454.31
2018-07-26T00:34:08.377Z,101455.64
2018-07-26T00:36:37.138Z,101453.87
2018-07-26T00:39:09.000Z,101443.63
2018-07-26T00:41:37.936Z,101444.54
2018-07-26T00:44:07.181Z,101444.12
2018-07-26T00:46:35.671Z,101442.36
2018-07-26T00:49:04.445Z,101449.52
2018-07-26T00:51:33.598Z,101443.30
2018-07-26T00:54:02.927Z,101445.09
2018-07-26T00:56:31.377Z,101450.45
2018-07-26T00:59:00.097Z,101449.14
2018-07-26T01:01:28.796Z,101448.27
2018-07-26T01:03:57.476Z,101443.81
2018-07-26T01:06:25.933Z,101446.50
2018-07-26T01:08:54.585Z,101447.39
2018-07-26T01:11:23.237Z,101456.31
2018-07-26T01:13:51.908Z,101451.89
2018-07-26T01:16:20.775Z,101453.23
2018-07-26T01:18:49.237Z,101458.13
2018-07-26T01:21:18.285Z,101455.90
2018-07-26T01:23:46.735Z,101459.03
2018-07-26T01:26:15.196Z,101455.94
2018-07-26T01:28:44.492Z,101456.83
2018-07-26T01:31:13.313Z,101459.48
2018-07-26T01:33:42.192Z,101454.14
2018-07-26T01:36:11.001Z,101450.13
2018-07-26T01:38:39.465Z,101448.36
2018-07-26T01:41:08.047Z,101451.05
2018-07-26T01:43:51.150Z,101447.97
2018-07-26T01:46:21.170Z,101450.66
2018-07-26T01:48:50.045Z,101453.81
2018-07-26T01:51:18.985Z,101454.69
2018-07-26T01:53:47.580Z,101455.13
2018-07-26T01:56:16.455Z,101452.45
2018-07-26T01:58:45.325Z,101451.14
2018-07-26T02:01:14.470Z,101453.37
2018-07-26T02:03:42.932Z,101452.48
2018-07-26T02:06:11.784Z,101446.70
2018-07-26T02:08:40.502Z,101445.83
2018-07-26T02:11:08.958Z,101446.28
2018-07-26T02:13:38.065Z,101444.52
2018-07-26T02:16:07.045Z,101454.75
2018-07-26T02:18:36.161Z,101451.19
2018-07-26T02:21:05.108Z,101451.22
2018-07-26T02:23:33.617Z,101450.33
2018-07-26T02:26:02.538Z,101449.01
2018-07-26T02:28:31.536Z,101448.99
2018-07-26T02:31:00.039Z,101448.11
2018-07-26T02:33:28.917Z,101448.59
2018-07-26T02:35:58.355Z,101448.13
2018-07-26T02:38:26.914Z,101445.47
2018-07-26T02:40:55.870Z,101448.56
2018-07-26T02:43:24.726Z,101450.34
2018-07-26T02:45:53.229Z,101446.34
2018-07-26T02:48:22.038Z,101441.90
2018-07-26T02:50:51.109Z,101446.80
2018-07-26T02:53:19.996Z,101447.23
2018-07-26T02:55:48.465Z,101445.47
2018-07-26T02:58:17.157Z,101444.12
2018-07-26T03:00:45.648Z,101442.77
2018-07-26T03:03:14.212Z,101449.88
2018-07-26T03:05:43.308Z,101456.13
2018-07-26T03:08:12.022Z,101450.80
2018-07-26T03:10:40.698Z,101457.94
2018-07-26T03:13:09.572Z,101454.85
2018-07-26T03:15:38.070Z,101328.22
2018-07-26T03:18:06.866Z,101459.27
2018-07-26T03:20:35.601Z,101461.95
2018-07-26T03:23:04.056Z,101461.47
2018-07-26T03:25:32.657Z,101464.55
2018-07-26T03:28:01.682Z,101461.88
2018-07-26T03:30:30.193Z,101465.45
2018-07-26T03:32:58.649Z,101466.38
2018-07-26T03:35:27.533Z,101472.58
2018-07-26T03:37:56.395Z,101469.01
2018-07-26T03:40:24.833Z,101475.25
2018-07-26T03:42:54.128Z,101475.23
2018-07-26T03:45:22.687Z,101474.77
2018-07-26T03:47:51.102Z,101475.19
2018-07-26T03:50:20.089Z,101473.37
2018-07-26T03:52:49.022Z,101478.72
2018-07-26T03:55:17.429Z,101477.83
2018-07-26T03:57:46.558Z,101488.95
2018-07-26T04:00:15.313Z,101482.25
2018-07-26T04:02:44.048Z,101480.44
2018-07-26T04:05:12.870Z,101483.97
2018-07-26T04:07:41.313Z,101487.05
2018-07-26T04:10:09.836Z,101485.69
2018-07-26T04:12:38.921Z,101488.33
2018-07-26T04:15:08.079Z,101489.64
2018-07-26T04:17:37.037Z,101490.48
2018-07-26T04:20:05.937Z,101494.87
2018-07-26T04:22:34.530Z,101499.27
2018-07-26T04:25:02.961Z,101490.32
2018-07-26T04:27:31.864Z,101495.16
2018-07-26T04:30:00.299Z,101497.80
2018-07-26T04:32:29.157Z,101501.33
2018-07-26T04:34:58.013Z,101505.29
2018-07-26T04:37:26.533Z,101501.68
2018-07-26T04:39:55.209Z,101513.64
2018-07-26T04:42:23.781Z,101495.47
2018-07-26T04:44:52.257Z,101521.13
2018-07-26T04:47:20.967Z,101517.96
2018-07-26T04:49:50.481Z,101509.88
2018-07-26T04:52:19.378Z,101517.83
2018-07-26T04:54:50.619Z,101516.89
2018-07-26T04:57:20.453Z,101520.38
2018-07-26T04:59:48.936Z,101519.43
2018-07-26T05:02:17.385Z,101522.02
2018-07-26T05:04:46.345Z,101517.48
2018-07-26T05:07:15.027Z,101519.16
2018-07-26T05:09:43.853Z,101521.78
2018-07-26T05:12:12.613Z,101519.45
2018-07-26T05:14:41.418Z,101517.17
2018-07-26T05:17:10.113Z,101516.20
2018-07-26T05:19:39.018Z,101519.31
2018-07-26T05:22:07.777Z,101529.95
2018-07-26T05:24:36.457Z,101530.34
2018-07-26T05:27:05.858Z,101531.16
2018-07-26T05:29:34.337Z,101538.72
2018-07-26T05:32:03.141Z,101535.11
2018-07-26T05:34:32.014Z,101539.94
2018-07-26T05:37:00.513Z,101543.88
2018-07-26T05:39:29.422Z,101544.27
2018-07-26T05:41:59.294Z,101540.16
2018-07-26T05:44:27.793Z,101542.30
2018-07-26T05:46:56.849Z,101542.69
2018-07-26T05:49:26.076Z,101550.67
2018-07-26T05:51:54.529Z,101544.78
2018-07-26T05:54:23.271Z,101544.25
2018-07-26T05:56:52.039Z,101545.92
2018-07-26T05:59:20.915Z,101549.39
2018-07-26T06:01:50.310Z,101547.53
2018-07-26T06:04:19.097Z,101550.11
2018-07-26T06:06:47.617Z,101552.25
2018-07-26T06:09:16.101Z,101560.22
2018-07-26T06:11:44.765Z,101563.70
2018-07-26T06:14:13.593Z,101558.77
2018-07-26T06:16:42.655Z,101559.98
2018-07-26T06:19:11.744Z,101564.33
2018-07-26T06:21:40.229Z,101566.04
2018-07-26T06:24:08.965Z,101566.78
2018-07-26T06:26:37.771Z,101567.52
2018-07-26T06:29:06.273Z,101572.30
2018-07-26T06:31:35.297Z,101574.80
2018-07-26T06:34:04.106Z,101563.58
2018-07-26T06:36:32.605Z,101567.61
2018-07-26T06:39:01.129Z,101569.83
2018-07-26T06:41:30.317Z,101559.04
2018-07-26T06:43:59.190Z,101569.13
2018-07-26T06:46:27.701Z,101575.25
2018-07-26T06:48:57.581Z,101574.62
2018-07-26T06:51:26.289Z,101576.27
2018-07-26T06:53:54.753Z,101572.14
2018-07-26T06:56:24.152Z,101579.92
2018-07-26T06:58:53.014Z,101586.39
2018-07-26T07:01:21.878Z,101589.79
2018-07-26T07:03:51.025Z,101587.24
2018-07-26T07:06:19.606Z,101587.20
2018-07-26T07:08:48.305Z,101582.92
2018-07-26T07:11:16.880Z,101590.65
2018-07-26T07:13:45.610Z,101583.16
2018-07-26T07:16:14.193Z,101577.46
2018-07-26T07:18:43.062Z,101577.52
2018-07-26T07:21:11.569Z,101581.06
2018-07-26T07:23:40.409Z,101578.69
2018-07-26T07:26:09.195Z,101589.04
2018-07-26T07:28:37.600Z,101579.19
2018-07-26T07:31:06.071Z,101582.92
2018-07-26T07:33:35.147Z,101584.95
2018-07-26T07:36:03.895Z,101581.61
2018-07-26T07:38:32.347Z,101587.62
2018-07-26T07:41:01.234Z,101581.41
2018-07-26T07:43:29.913Z,101591.12
2018-07-26T07:45:58.485Z,101593.16
2018-07-26T07:48:28.002Z,101440.77
2018-07-26T07:50:56.617Z,101585.84
2018-07-26T07:53:25.062Z,101590.88
2018-07-26T07:55:53.634Z,101595.95
2018-07-26T07:58:22.765Z,101592.23
2018-07-26T08:00:51.617Z,101580.68
2018-07-26T08:03:21.472Z,101585.57
2018-07-26T08:05:49.929Z,101589.25
2018-07-26T08:08:18.683Z,101586.59
2018-07-26T08:10:47.153Z,101592.18
2018-07-26T08:13:15.697Z,101586.99
2018-07-26T08:15:44.373Z,101581.47
2018-07-26T08:18:13.269Z,101579.39
2018-07-26T08:20:41.757Z,101590.50
2018-07-26T08:23:10.226Z,101586.19
2018-07-26T08:25:38.986Z,101578.94
2018-07-26T08:28:07.453Z,101581.65
2018-07-26T08:30:36.165Z,101586.30
2018-07-26T08:33:05.135Z,101581.83
2018-07-26T08:35:33.598Z,101585.73
2018-07-26T08:38:02.045Z,101590.66
2018-07-26T08:40:30.942Z,101587.25
2018-07-26T08:42:59.425Z,101593.62
2018-07-26T08:45:27.914Z,101587.84
2018-07-26T08:47:56.660Z,101586.63
2018-07-26T08:50:25.213Z,101593.06
2018-07-26T08:52:54.018Z,101595.09
2018-07-26T08:55:23.019Z,101595.44
2018-07-26T08:57:51.653Z,101601.34
2018-07-26T09:00:20.437Z,101593.44
2018-07-26T09:02:49.397Z,101602.15
2018-07-26T09:05:18.018Z,101597.45
2018-07-26T09:07:46.565Z,101588.55
2018-07-26T09:10:16.432Z,101590.92
2018-07-26T09:12:44.989Z,101592.30
2018-07-26T09:15:13.456Z,101591.12
2018-07-26T09:17:43.853Z,101591.52
2018-07-26T09:20:12.729Z,101598.14
2018-07-26T09:22:41.282Z,101589.74
2018-07-26T09:25:09.853Z,101592.63
2018-07-26T09:27:38.299Z,101593.20
2018-07-26T09:30:08.505Z,101592.91
2018-07-26T09:32:37.037Z,101595.41
2018-07-26T09:35:05.571Z,101598.56
2018-07-26T09:37:34.129Z,101596.56
2018-07-26T09:40:02.709Z,101596.88
2018-07-26T09:42:31.400Z,101594.08
2018-07-26T09:44:59.841Z,101596.08
2018-07-26T09:47:28.459Z,101599.13
2018-07-26T09:49:56.927Z,101597.14
2018-07-26T09:52:25.499Z,101599.23
2018-07-26T09:54:54.084Z,101602.63
2018-07-26T09:57:22.672Z,101595.97
2018-07-26T09:59:51.572Z,101597.70
2018-07-26T10:02:21.081Z,101601.06
2018-07-26T10:04:49.821Z,101601.42
2018-07-26T10:07:18.329Z,101591.02
2018-07-26T10:09:47.733Z,101602.86
2018-07-26T10:12:16.198Z,101601.16
2018-07-26T10:14:44.637Z,101589.44
2018-07-26T10:17:13.294Z,101595.60
2018-07-26T10:19:41.845Z,101592.94
2018-07-26T10:22:10.595Z,101592.95
2018-07-26T10:24:39.593Z,101598.80
2018-07-26T10:27:08.117Z,101595.63
2018-07-26T10:29:36.606Z,101598.91
2018-07-26T10:32:05.645Z,101599.31
2018-07-26T10:34:34.792Z,101601.56
2018-07-26T10:37:03.277Z,101591.05
2018-07-26T10:39:32.004Z,101591.53
2018-07-26T10:42:00.465Z,101599.63
2018-07-26T10:44:28.969Z,101603.23
2018-07-26T10:46:58.068Z,101606.37
2018-07-26T10:49:26.560Z,101609.20
2018-07-26T10:51:55.670Z,101608.09
2018-07-26T10:54:24.405Z,101603.66
2018-07-26T10:56:52.829Z,101611.59
2018-07-26T10:59:21.344Z,101611.12
2018-07-26T11:01:50.458Z,101603.81
2018-07-26T11:04:19.077Z,101600.17
2018-07-26T11:06:47.533Z,101611.61
2018-07-26T11:09:16.633Z,101606.84
2018-07-26T11:11:45.129Z,101606.22
2018-07-26T11:14:13.661Z,101618.31
2018-07-26T11:16:42.310Z,101614.23
2018-07-26T11:19:10.746Z,101614.91
2018-07-26T11:21:39.241Z,101615.85
2018-07-26T11:24:08.212Z,101610.53
2018-07-26T11:26:36.765Z,101602.63
2018-07-26T11:29:05.241Z,101615.48
2018-07-26T11:31:34.069Z,101607.90
2018-07-26T11:34:03.076Z,101615.78
2018-07-26T11:36:31.553Z,101604.62
2018-07-26T11:39:00.428Z,101610.55
2018-07-26T11:41:29.359Z,101614.42
2018-07-26T11:43:57.783Z,101611.50
2018-07-26T11:46:26.417Z,101614.16
2018-07-26T11:48:55.381Z,101603.37
2018-07-26T11:51:23.825Z,101617.62
2018-07-26T11:53:52.653Z,101616.16
2018-07-26T11:56:21.096Z,101611.33
2018-07-26T11:58:49.695Z,101604.55
2018-07-26T12:01:18.279Z,101604.28
2018-07-26T12:03:46.721Z,101603.52
2018-07-26T12:06:15.426Z,101607.30
2018-07-26T12:08:43.886Z,101610.33
2018-07-26T12:11:12.562Z,101600.41
2018-07-26T12:13:40.989Z,101605.22
2018-07-26T12:16:09.932Z,101607.19
2018-07-26T12:18:38.368Z,101605.63
2018-07-26T12:21:06.848Z,101600.64
2018-07-26T12:23:35.485Z,101604.30
2018-07-26T12:26:04.066Z,101608.45
2018-07-26T12:28:32.487Z,101601.52
2018-07-26T12:31:01.597Z,101607.55
2018-07-26T12:33:30.054Z,101612.50
2018-07-26T12:35:58.561Z,101600.98
2018-07-26T12:38:27.034Z,101604.89
2018-07-26T12:40:55.492Z,101608.30
2018-07-26T12:43:23.990Z,101596.27
2018-07-26T12:45:52.646Z,101592.52
2018-07-26T12:48:21.237Z,101595.44
2018-07-26T12:50:49.709Z,101594.59
2018-07-26T12:53:18.533Z,101604.73
2018-07-26T12:55:47.042Z,101592.06
2018-07-26T12:58:15.473Z,101596.31
2018-07-26T13:00:43.941Z,101606.50
2018-07-26T13:03:12.386Z,101600.73
2018-07-26T13:05:41.294Z,101596.39
2018-07-26T13:08:10.272Z,101597.55
2018-07-26T13:10:38.695Z,101595.16
2018-07-26T13:13:07.167Z,101605.36
2018-07-26T13:15:36.106Z,101602.14
2018-07-26T13:18:04.598Z,101404.94
2018-07-26T13:20:33.099Z,101593.30
2018-07-26T13:23:01.730Z,101600.63
2018-07-26T13:25:30.355Z,101597.11
2018-07-26T13:27:58.813Z,101609.06
2018-07-26T13:30:27.337Z,101604.50
2018-07-26T13:32:55.778Z,101600.32
2018-07-26T13:35:24.334Z,101605.88
2018-07-26T13:37:53.097Z,101612.05
2018-07-26T13:40:21.953Z,101605.72
2018-07-26T13:42:50.353Z,101601.12
2018-07-26T13:45:19.235Z,101606.06
2018-07-26T13:47:47.663Z,101606.00
2018-07-26T13:50:16.064Z,101603.66
2018-07-26T13:52:44.634Z,101603.07
2018-07-26T13:55:13.049Z,101605.86
2018-07-26T13:57:41.492Z,101607.66
2018-07-26T14:00:11.558Z,101607.78
2018-07-26T14:02:40.014Z,101604.29
2018-07-26T14:05:08.477Z,101611.53
2018-07-26T14:07:37.038Z,101609.21
2018-07-26T14:10:07.403Z,101604.75
2018-07-26T14:12:36.745Z,101611.45
2018-07-26T14:15:06.497Z,101613.41
2018-07-26T14:17:35.058Z,101603.13
2018-07-26T14:20:03.572Z,101609.05
2018-07-26T14:22:32.509Z,101618.12
2018-07-26T14:25:01.218Z,101610.86
2018-07-26T14:27:30.310Z,101611.45
2018-07-26T14:29:59.181Z,101611.55
2018-07-26T14:32:27.911Z,101606.48
2018-07-26T14:34:56.637Z,101609.06
2018-07-26T14:37:25.362Z,101614.55
2018-07-26T14:39:53.891Z,101505.75
2018-07-26T14:42:22.485Z,101621.50
2018-07-26T14:44:50.986Z,101615.33
2018-07-26T14:47:19.709Z,101615.22
2018-07-26T14:49:48.185Z,101619.03
2018-07-26T14:52:16.662Z,101613.27
2018-07-26T14:54:45.102Z,101608.97
2018-07-26T14:57:13.573Z,101604.23
2018-07-26T14:59:42.012Z,101602.73
2018-07-26T15:02:10.595Z,101508.23
2018-07-26T15:04:39.173Z,101612.63
2018-07-26T15:07:07.650Z,101608.19
2018-07-26T15:09:36.133Z,101618.02
2018-07-26T15:12:04.763Z,101620.34
2018-07-26T15:14:33.363Z,101616.48
2018-07-26T15:17:01.814Z,101617.48
2018-07-26T15:19:30.321Z,101614.42
2018-07-26T15:21:59.283Z,101612.00
2018-07-26T15:24:28.790Z,101613.77
2018-07-26T15:26:57.364Z,101619.26
2018-07-26T15:29:26.469Z,101616.33
2018-07-26T15:31:54.889Z,101620.69
2018-07-26T15:34:23.361Z,101616.59
2018-07-26T15:36:52.043Z,101613.55
2018-07-26T15:39:21.034Z,101617.44
2018-07-26T15:41:49.617Z,101614.79
2018-07-26T15:44:18.165Z,101612.30
2018-07-26T15:46:53.265Z,101620.73
2018-07-26T15:49:21.924Z,101616.91
2018-07-26T15:51:50.381Z,101626.72
2018-07-26T15:54:18.847Z,101622.91
2018-07-26T15:56:47.505Z,101622.20
2018-07-26T15:59:15.954Z,101633.48
2018-07-26T16:01:44.511Z,101631.53
2018-07-26T16:04:12.999Z,101631.52
2018-07-26T16:06:41.489Z,101631.22
2018-07-26T16:09:11.099Z,101626.28
2018-07-26T16:11:39.753Z,101626.38
2018-07-26T16:14:09.427Z,101625.17
2018-07-26T16:16:37.952Z,101639.28
2018-07-26T16:19:06.614Z,101639.63
2018-07-26T16:21:35.533Z,101634.86
2018-07-26T16:24:04.456Z,101638.10
2018-07-26T16:26:33.121Z,101635.61
2018-07-26T16:29:01.738Z,101637.75
2018-07-26T16:31:30.710Z,101646.22
2018-07-26T16:33:59.215Z,101640.13
2018-07-26T16:36:27.645Z,101641.96
2018-07-26T16:38:56.541Z,101648.20
2018-07-26T16:41:25.008Z,101647.08
2018-07-26T16:43:53.457Z,101637.34
2018-07-26T16:46:22.001Z,101644.31
2018-07-26T16:48:50.797Z,101645.42
2018-07-26T16:51:19.310Z,101651.01
2018-07-26T16:53:47.828Z,101663.45
2018-07-26T16:56:16.442Z,101658.43
2018-07-26T16:58:44.888Z,101657.70
2018-07-26T17:01:13.694Z,101662.61
2018-07-26T17:03:42.589Z,101661.34
2018-07-26T17:06:11.037Z,101660.81
2018-07-26T17:08:39.527Z,101666.12
2018-07-26T17:11:08.570Z,101666.85
2018-07-26T17:13:37.129Z,101665.75
2018-07-26T17:16:05.931Z,101669.50
2018-07-26T17:18:34.634Z,101672.65
2018-07-26T17:21:03.158Z,101674.48
2018-07-26T17:23:31.687Z,101665.00
2018-07-26T17:26:00.190Z,101664.92
2018-07-26T17:28:28.661Z,101675.34
2018-07-26T17:30:57.205Z,101678.49
2018-07-26T17:33:25.997Z,101671.55
2018-07-26T17:35:54.698Z,101680.50
2018-07-26T17:38:26.018Z,101680.17
2018-07-26T17:40:54.774Z,101687.39
2018-07-26T17:43:25.114Z,101679.41
2018-07-26T17:45:53.586Z,101688.39
2018-07-26T17:48:22.341Z,101689.38
2018-07-26T17:50:50.821Z,101698.03
2018-07-26T17:53:19.906Z,101699.73
2018-07-26T17:55:48.382Z,101703.95
2018-07-26T17:58:17.007Z,101706.95
2018-07-26T18:00:45.681Z,101707.77
2018-07-26T18:03:14.140Z,101716.34
2018-07-26T18:05:42.613Z,101715.70
2018-07-26T18:08:11.177Z,101724.22
2018-07-26T18:10:40.525Z,101727.11
2018-07-26T18:15:36.524Z,101731.20
2018-07-26T18:18:05.166Z,101731.34
2018-07-26T18:20:33.799Z,101737.95
2018-07-26T18:23:02.257Z,101741.66
2018-07-26T18:25:31.038Z,101747.72
2018-07-26T18:27:59.553Z,101752.49
2018-07-26T18:30:29.213Z,101754.67
2018-07-26T18:32:57.661Z,101754.58
2018-07-26T18:35:26.289Z,101759.52
2018-07-26T18:37:54.797Z,101759.22
2018-07-26T18:40:23.253Z,101762.27
2018-07-26T18:42:51.905Z,101759.42
2018-07-26T18:45:20.788Z,101765.94
2018-07-26T18:47:49.236Z,101761.80
2018-07-26T18:50:17.993Z,101767.20
2018-07-26T18:52:46.577Z,101771.88
2018-07-26T18:55:15.026Z,101776.09
2018-07-26T18:57:43.690Z,101772.72
2018-07-26T19:00:13.635Z,101775.58
2018-07-26T19:02:42.421Z,101780.00
2018-07-26T19:05:11.007Z,101785.61
2018-07-26T19:07:39.475Z,101782.59
2018-07-26T19:10:09.909Z,101787.21
2018-07-26T19:12:39.185Z,101791.36
2018-07-26T19:15:12.058Z,101789.30
2018-07-26T19:17:41.789Z,101791.88
2018-07-26T19:20:11.717Z,101801.47
2018-07-26T19:22:40.646Z,101805.20
2018-07-26T19:25:10.014Z,101809.89
2018-07-26T19:27:38.805Z,101804.69
2018-07-26T19:30:09.658Z,101814.37
2018-07-26T19:32:39.825Z,101814.09
2018-07-26T19:35:08.310Z,101826.78
2018-07-26T19:37:36.829Z,101829.11
2018-07-26T19:40:07.238Z,101833.71
2018-07-26T19:42:36.361Z,101832.52
2018-07-26T19:45:06.057Z,101833.16
2018-07-26T19:47:34.513Z,101835.61
2018-07-26T19:50:03.715Z,101838.48
2018-07-26T19:52:32.194Z,101843.16
2018-07-26T19:55:00.642Z,101846.50
2018-07-26T19:57:29.341Z,101852.56
2018-07-26T19:59:58.225Z,101856.90
2018-07-26T20:02:27.445Z,101859.75
2018-07-26T20:04:56.215Z,101863.08
2018-07-26T20:07:25.074Z,101870.05
2018-07-26T20:09:53.716Z,101859.59
2018-07-26T20:12:22.243Z,101866.05
2018-07-26T20:14:50.957Z,101869.02
2018-07-26T20:17:19.580Z,101875.50
2018-07-26T20:19:48.090Z,101877.49
2018-07-26T20:22:16.753Z,101872.79
2018-07-26T20:24:45.500Z,101878.42
2018-07-26T20:27:13.954Z,101878.13
2018-07-26T20:29:42.533Z,101876.95
2018-07-26T20:32:11.197Z,101883.81
2018-07-26T20:34:39.813Z,101884.44
2018-07-26T20:37:08.958Z,101881.41
2018-07-26T20:39:37.482Z,101887.38
2018-07-26T20:42:06.648Z,101862.64
2018-07-26T20:44:35.104Z,101892.45
2018-07-26T20:47:03.583Z,101893.92
2018-07-26T20:49:32.023Z,101897.63
2018-07-26T20:52:00.567Z,101899.60
2018-07-26T20:54:29.181Z,101900.58
2018-07-26T20:56:57.689Z,101902.29
2018-07-26T20:59:27.009Z,101901.49
2018-07-26T21:01:55.494Z,101903.88
2018-07-26T21:04:24.158Z,101905.78
2018-07-26T21:06:53.131Z,101905.27
2018-07-26T21:09:21.609Z,101905.27
2018-07-26T21:11:50.206Z,101914.82
2018-07-26T21:14:18.659Z,101909.93
2018-07-26T21:16:47.614Z,101909.02
2018-07-26T21:19:16.694Z,101915.36
2018-07-26T21:21:45.482Z,101920.78
2018-07-26T21:24:14.431Z,101920.87
2018-07-26T21:26:42.857Z,101921.86
2018-07-26T21:29:11.350Z,101924.55
2018-07-26T21:31:39.859Z,101932.98
2018-07-26T21:34:09.517Z,101940.99
2018-07-26T21:36:38.001Z,101943.70
2018-07-26T21:39:09.049Z,101945.13
2018-07-26T21:41:37.559Z,101945.56
2018-07-26T21:44:06.765Z,101943.36
2018-07-26T21:46:35.517Z,101940.28
2018-07-26T21:49:04.182Z,101948.87
2018-07-26T21:51:32.898Z,101950.27
2018-07-26T21:54:01.812Z,101951.58
2018-07-26T21:56:30.349Z,101959.56
2018-07-26T21:58:59.081Z,101963.77
2018-07-26T22:01:28.038Z,101964.82
2018-07-26T22:03:56.658Z,101969.34
2018-07-26T22:06:25.187Z,101971.65
2018-07-26T22:08:53.713Z,101972.08
2018-07-26T22:11:22.273Z,101972.48
2018-07-26T22:13:50.707Z,101975.17
2018-07-26T22:16:19.367Z,101984.16
2018-07-26T22:18:47.939Z,101982.44
2018-07-26T22:21:16.907Z,101979.34
2018-07-26T22:23:45.469Z,101983.45
2018-07-26T22:26:13.947Z,101989.73
2018-07-26T22:28:42.433Z,101991.66
2018-07-26T22:31:11.051Z,101991.31
2018-07-26T22:33:39.546Z,101998.48
2018-07-26T22:36:08.758Z,101995.78
2018-07-26T22:38:37.993Z,101998.02
2018-07-26T22:41:06.523Z,101997.98
2018-07-26T22:43:35.430Z,101998.41
2018-07-26T22:46:03.924Z,102006.89
2018-07-26T22:48:32.397Z,102005.55
2018-07-26T22:51:01.237Z,102007.34
2018-07-26T22:53:30.065Z,101998.88
2018-07-26T22:55:59.929Z,101998.94
2018-07-26T22:58:28.541Z,102001.65
2018-07-26T23:00:58.321Z,102003.55
2018-07-26T23:03:27.064Z,102005.96
2018-07-26T23:05:55.606Z,102010.51
2018-07-26T23:08:24.266Z,102010.95
2018-07-26T23:10:52.774Z,102010.92
2018-07-26T23:13:21.630Z,102010.45
2018-07-26T23:15:50.308Z,102015.80
2018-07-26T23:18:18.830Z,102016.70
2018-07-26T23:20:47.359Z,102017.62
2018-07-26T23:23:16.177Z,102016.75
2018-07-26T23:25:44.756Z,102019.90
2018-07-26T23:28:13.217Z,102023.06
2018-07-26T23:30:41.889Z,102018.66
2018-07-26T23:33:11.342Z,102023.17
2018-07-26T23:35:39.974Z,102020.97
2018-07-26T23:38:08.445Z,102026.84
2018-07-26T23:40:36.920Z,102032.70
2018-07-26T23:43:05.793Z,102031.41
2018-07-26T23:45:34.233Z,102036.38
2018-07-26T23:48:03.581Z,102040.85
2018-07-26T23:50:32.379Z,102043.06
2018-07-26T23:53:00.821Z,102037.72
2018-07-26T23:55:29.310Z,102043.06
2018-07-26T23:57:58.142Z,102037.80
